createdAt,value
2017-11-14T00:00:10.697Z,2.8
2017-11-14T00:05:20.153Z,2.7
2017-11-14T00:10:15.150Z,2.5
2017-11-14T00:15:03.236Z,2.6
2017-11-14T00:20:07.918Z,2.3
2017-11-14T00:25:05.563Z,2.2
2017-11-14T00:30:02.624Z,2.2
2017-11-14T00:35:02.900Z,2.1
2017-11-14T00:40:10.516Z,1.9
2017-11-14T00:45:05.110Z,1.9
2017-11-14T00:50:03.077Z,1.8
2017-11-14T00:55:03.318Z,1.8
2017-11-14T01:00:02.748Z,1.8
2017-11-14T01:05:05.588Z,1.8
2017-11-14T01:10:08.086Z,1.8
2017-11-14T01:15:07.799Z,1.7
2017-11-14T01:20:05.775Z,1.7
2017-11-14T01:25:07.527Z,1.7
2017-11-14T01:30:05.626Z,1.6
2017-11-14T01:35:10.755Z,1.7
2017-11-14T01:40:05.758Z,1.8
2017-11-14T01:45:28.176Z,1.7
2017-11-14T01:50:10.120Z,1.7
2017-11-14T01:55:05.132Z,1.6
2017-11-14T02:00:18.315Z,1.6
2017-11-14T02:05:02.920Z,1.6
2017-11-14T02:10:18.541Z,1.5
2017-11-14T02:15:10.637Z,1.4
2017-11-14T02:20:07.614Z,1.3
2017-11-14T02:25:20.392Z,1.2
2017-11-14T02:30:03.109Z,1.2
2017-11-14T02:35:08.388Z,1.1
2017-11-14T02:40:02.510Z,1.1
2017-11-14T02:45:02.958Z,1
2017-11-14T02:50:05.009Z,0.9
2017-11-14T02:55:07.661Z,0.9
2017-11-14T03:00:18.222Z,0.9
2017-11-14T03:05:03.226Z,0.9
2017-11-14T03:10:15.875Z,0.8
2017-11-14T03:15:07.892Z,0.7
2017-11-14T03:20:23.570Z,0.8
2017-11-14T03:25:27.833Z,1.1
2017-11-14T03:30:03.020Z,1.1
2017-11-14T03:35:18.329Z,1.3
2017-11-14T03:40:03.165Z,1.3
2017-11-14T03:45:35.658Z,1.4
2017-11-14T03:50:15.921Z,1.4
2017-11-14T03:55:07.553Z,1.3
2017-11-14T04:00:05.445Z,1.3
2017-11-14T04:05:38.538Z,1.2
2017-11-14T04:10:03.176Z,1.2
2017-11-14T04:15:35.745Z,0.9
2017-11-14T04:20:15.994Z,0.8
2017-11-14T04:25:02.476Z,0.8
2017-11-14T04:30:08.124Z,0.6
2017-11-14T04:40:10.670Z,0.5
2017-11-14T04:45:07.718Z,0.4
2017-11-14T04:50:08.212Z,0.4
2017-11-14T04:55:08.340Z,0.3
2017-11-14T05:00:10.278Z,0.2
2017-11-14T05:05:02.782Z,0.2
2017-11-14T05:15:23.566Z,0.1
2017-11-14T05:20:05.352Z,0.1
2017-11-14T05:25:33.251Z,0.2
2017-11-14T05:30:03.309Z,0.2
2017-11-14T05:35:03.352Z,0.5
2017-11-14T05:40:08.388Z,0.8
2017-11-14T05:45:05.419Z,1
2017-11-14T05:50:23.571Z,1.1
2017-11-14T05:55:27.754Z,1.2
2017-11-14T06:00:23.285Z,1.2
2017-11-14T06:05:10.648Z,1.3
2017-11-14T06:10:05.613Z,1.4
2017-11-14T06:20:10.708Z,1.6
2017-11-14T06:25:13.378Z,1.7
2017-11-14T06:30:02.790Z,1.7
2017-11-14T06:35:13.016Z,2
2017-11-14T06:40:02.920Z,2
2017-11-14T06:45:32.960Z,2.1
2017-11-14T06:50:05.567Z,2.2
2017-11-14T06:55:05.739Z,2.3
2017-11-14T07:00:05.238Z,2.2
2017-11-14T07:05:02.896Z,2.2
2017-11-14T07:10:08.029Z,2.3
2017-11-14T07:15:02.634Z,2.3
2017-11-14T07:20:03.105Z,2.3
2017-11-14T07:25:11.002Z,2.3
2017-11-14T07:30:02.895Z,2.3
2017-11-14T07:35:05.651Z,2.4
2017-11-14T07:40:18.260Z,2.5
2017-11-14T07:45:05.291Z,2.6
2017-11-14T07:50:18.452Z,2.5
2017-11-14T07:55:32.914Z,2.6
2017-11-14T08:00:05.541Z,2.5
2017-11-14T08:05:20.944Z,2.5
2017-11-14T08:10:23.470Z,2.5
2017-11-14T08:15:05.441Z,2.6
2017-11-14T08:20:04.952Z,2.7
2017-11-14T08:25:02.673Z,2.7
2017-11-14T08:30:13.244Z,2.9
2017-11-14T08:35:08.417Z,3
2017-11-14T08:40:10.059Z,3
2017-11-14T08:45:03.165Z,3
2017-11-14T08:50:05.263Z,3
2017-11-14T08:55:10.529Z,2.9
2017-11-14T09:00:17.664Z,3
2017-11-14T09:05:05.213Z,3.1
2017-11-14T09:10:02.696Z,3.1
2017-11-14T09:15:27.743Z,3.3
2017-11-14T09:20:10.519Z,3.5
2017-11-14T09:25:30.974Z,3.6
2017-11-14T09:30:07.821Z,3.7
2017-11-14T09:35:07.960Z,3.8
2017-11-14T09:45:07.863Z,4.1
2017-11-14T09:50:05.853Z,4.2
2017-11-14T09:55:07.642Z,4.3
2017-11-14T10:00:18.316Z,4.4
2017-11-14T10:05:25.259Z,4.7
2017-11-14T10:15:35.220Z,5
2017-11-14T10:20:02.944Z,4.9
2017-11-14T10:25:26.028Z,5.2
2017-11-14T10:30:02.807Z,5.2
2017-11-14T10:35:03.152Z,5.2
2017-11-14T10:40:08.437Z,5.4
2017-11-14T10:45:18.185Z,5.4
2017-11-14T10:55:35.857Z,5.7
2017-11-14T11:00:05.044Z,5.8
2017-11-14T11:05:05.411Z,5.9
2017-11-14T11:10:18.253Z,6.1
2017-11-14T11:15:18.084Z,6.2
2017-11-14T11:20:02.511Z,6.2
2017-11-14T11:25:05.534Z,6.5
2017-11-14T11:35:03.086Z,6.6
2017-11-14T11:45:05.714Z,6.8
2017-11-14T11:50:10.402Z,6.9
2017-11-14T11:55:08.351Z,6.9
2017-11-14T12:00:20.665Z,7
2017-11-14T12:05:22.693Z,7.1
2017-11-14T12:10:02.651Z,7.1
2017-11-14T12:15:05.124Z,7.2
2017-11-14T12:20:03.258Z,7.2
2017-11-14T12:25:05.387Z,7.4
2017-11-14T12:30:22.807Z,7.5
2017-11-14T12:35:08.104Z,7.5
2017-11-14T12:40:05.819Z,7.7
2017-11-14T12:45:33.666Z,7.7
2017-11-14T12:50:20.670Z,7.8
2017-11-14T12:55:20.138Z,8
2017-11-14T13:00:08.172Z,8.1
2017-11-14T13:05:38.032Z,8.3
2017-11-14T13:10:07.901Z,8.3
2017-11-14T13:15:33.210Z,8.3
2017-11-14T13:20:07.611Z,8.3
2017-11-14T13:25:10.699Z,8.4
2017-11-14T13:30:15.415Z,8.6
2017-11-14T13:35:05.760Z,8.5
2017-11-14T13:40:07.551Z,8.4
2017-11-14T13:45:07.662Z,8.2
2017-11-14T13:50:05.733Z,8.3
2017-11-14T14:00:07.533Z,8.3
2017-11-14T14:05:02.916Z,8.3
2017-11-14T14:10:20.830Z,8.2
2017-11-14T14:15:08.166Z,8.1
2017-11-14T14:20:35.614Z,8.1
2017-11-14T14:30:35.751Z,8.1
2017-11-14T14:40:02.602Z,8
2017-11-14T14:45:07.565Z,7.9
2017-11-14T14:50:08.498Z,7.9
2017-11-14T14:55:10.281Z,7.9
2017-11-14T15:00:26.117Z,7.9
2017-11-14T15:05:05.357Z,7.9
2017-11-14T15:10:13.222Z,7.8
2017-11-14T15:15:05.626Z,7.8
2017-11-14T15:20:05.258Z,7.8
2017-11-14T15:25:03.226Z,7.8
2017-11-14T15:30:07.906Z,7.8
2017-11-14T15:35:03.371Z,7.7
2017-11-14T15:40:10.155Z,7.7
2017-11-14T15:45:07.574Z,7.6
2017-11-14T15:50:05.774Z,7.6
2017-11-14T15:55:02.703Z,7.6
2017-11-14T16:00:04.979Z,7.6
2017-11-14T16:05:20.589Z,7.6
2017-11-14T16:10:05.647Z,7.6
2017-11-14T16:15:03.159Z,7.6
2017-11-14T16:20:07.917Z,7.6
2017-11-14T16:25:02.428Z,7.5
2017-11-14T16:30:15.798Z,7.5
2017-11-14T16:35:10.199Z,7.5
2017-11-14T16:40:33.156Z,7.5
2017-11-14T16:45:07.856Z,7.5
2017-11-14T16:50:10.078Z,7.5
2017-11-14T16:55:08.110Z,7.5
2017-11-14T17:00:20.388Z,7.5
2017-11-14T17:05:03.158Z,7.5
2017-11-14T17:10:16.036Z,7.5
2017-11-14T17:15:03.382Z,7.5
2017-11-14T17:20:10.612Z,7.5
2017-11-14T17:25:07.608Z,7.5
2017-11-14T17:30:05.753Z,7.6
2017-11-14T17:35:05.269Z,7.6
2017-11-14T17:40:33.228Z,7.5
2017-11-14T17:45:05.438Z,7.6
2017-11-14T17:50:12.816Z,7.6
2017-11-14T17:55:10.635Z,7.6
2017-11-14T18:00:05.405Z,7.7
2017-11-14T18:10:05.004Z,7.7
2017-11-14T18:15:23.598Z,7.6
2017-11-14T18:20:02.991Z,7.6
2017-11-14T18:25:32.992Z,7.6
2017-11-14T18:30:25.811Z,7.6
2017-11-14T18:35:12.627Z,7.5
2017-11-14T18:40:02.591Z,7.5
2017-11-14T18:45:32.911Z,7.5
2017-11-14T18:50:13.368Z,7.5
2017-11-14T18:55:15.265Z,7.5
2017-11-14T19:00:33.670Z,7.5
2017-11-14T19:05:05.210Z,7.5
2017-11-14T19:10:23.030Z,7.4
2017-11-14T19:15:10.313Z,7.4
2017-11-14T19:20:03.370Z,7.4
2017-11-14T19:25:17.961Z,7.4
2017-11-14T19:30:20.187Z,7.4
2017-11-14T19:35:02.903Z,7.4
2017-11-14T19:40:28.358Z,7.4
2017-11-14T19:45:10.552Z,7.4
2017-11-14T19:55:15.622Z,7.4
2017-11-14T20:05:07.980Z,7.4
2017-11-14T20:10:05.494Z,7.4
2017-11-14T20:15:10.476Z,7.4
2017-11-14T20:20:05.117Z,7.4
2017-11-14T20:25:18.216Z,7.4
2017-11-14T20:30:20.265Z,7.3
2017-11-14T20:35:10.620Z,7.3
2017-11-14T20:40:05.692Z,7.3
2017-11-14T20:45:30.932Z,7.3
2017-11-14T20:50:02.705Z,7.3
2017-11-14T20:55:08.247Z,7.3
2017-11-14T21:00:20.483Z,7.2
2017-11-14T21:05:05.743Z,7.2
2017-11-14T21:15:18.489Z,7.2
2017-11-14T21:20:03.021Z,7.2
2017-11-14T21:25:04.965Z,7.2
2017-11-14T21:30:03.035Z,7.2
2017-11-14T21:35:02.501Z,7.2
2017-11-14T21:40:10.185Z,7.1
2017-11-14T21:45:10.049Z,7.1
2017-11-14T21:50:03.045Z,7.1
2017-11-14T21:55:15.206Z,7
2017-11-14T22:00:30.933Z,7.1
2017-11-14T22:05:20.279Z,7
2017-11-14T22:10:20.418Z,7
2017-11-14T22:15:05.153Z,7.1
2017-11-14T22:20:10.820Z,7
2017-11-14T22:25:02.681Z,7.1
2017-11-14T22:30:10.867Z,7
2017-11-14T22:35:15.374Z,7.1
2017-11-14T22:40:15.681Z,7.1
2017-11-14T22:45:25.622Z,7.1
2017-11-14T22:50:05.050Z,7.1
2017-11-14T22:55:02.947Z,7.1
2017-11-14T23:00:22.978Z,7.1
2017-11-14T23:05:23.320Z,7.1
2017-11-14T23:10:13.410Z,7.1
2017-11-14T23:15:03.121Z,7.1
2017-11-14T23:20:10.374Z,7.1
2017-11-14T23:25:28.511Z,7.1
2017-11-14T23:30:13.058Z,7.2
2017-11-14T23:35:17.531Z,7.1
2017-11-14T23:40:17.721Z,7.2
2017-11-14T23:45:20.210Z,7.2
2017-11-14T23:50:05.644Z,7.2
2017-11-14T23:55:02.660Z,7.2
